Terminal Aerodrome Forecast
Issued by NWS Cleveland, OH

Home | Current Version | Previous Version | Text Only | Print | Product List | Glossary On
Versions: 1 2 3 4 5 6 7 8 9 10 11 12 13 14 15 16
000
FTUS41 KCLE 211100
TAFMFD
TAF
KMFD 211140Z 2112/2212 25006KT P6SM SCT040
     FM211900 21006KT P6SM SCT035
     FM220000 17007KT P6SM BKN250
     FM221000 18012KT P6SM BKN030=

USA.gov is the U.S. government's official web portal to all federal, state and local government web resources and services.